createdAt,value
2019-05-07T00:01:12.256Z,1.15
2019-05-07T00:03:39.228Z,1.20
2019-05-07T00:06:05.943Z,1.24
2019-05-07T00:08:32.702Z,1.24
2019-05-07T00:11:02.325Z,1.25
2019-05-07T00:13:28.955Z,1.26
2019-05-07T00:15:55.695Z,1.25
2019-05-07T00:18:23.079Z,1.27
2019-05-07T00:20:49.952Z,1.26
2019-05-07T00:23:16.711Z,1.28
2019-05-07T00:25:43.504Z,1.26
2019-05-07T00:28:12.256Z,1.25
2019-05-07T00:30:38.783Z,1.23
2019-05-07T00:33:05.572Z,1.21
2019-05-07T00:35:32.468Z,1.16
2019-05-07T00:37:59.163Z,1.11
2019-05-07T00:40:25.983Z,1.13
2019-05-07T00:42:53.041Z,1.13
2019-05-07T00:45:21.595Z,1.08
2019-05-07T00:47:48.938Z,1.00
2019-05-07T00:50:15.783Z,0.92
2019-05-07T00:52:43.085Z,0.88
2019-05-07T00:55:11.972Z,0.83
2019-05-07T00:57:38.558Z,0.82
2019-05-07T01:00:05.796Z,0.81
2019-05-07T01:02:32.611Z,0.81
2019-05-07T01:04:59.336Z,0.80
2019-05-07T01:07:26.107Z,0.77
2019-05-07T01:09:52.917Z,0.73
2019-05-07T01:12:19.692Z,0.75
2019-05-07T01:14:46.413Z,0.73
2019-05-07T01:17:13.237Z,0.67
2019-05-07T01:19:42.224Z,0.67
2019-05-07T01:22:08.524Z,0.60
2019-05-07T01:24:35.399Z,0.54
2019-05-07T01:27:02.257Z,0.49
2019-05-07T01:29:29.007Z,0.46
2019-05-07T01:31:55.800Z,0.42
2019-05-07T01:34:23.061Z,0.42
2019-05-07T01:36:52.237Z,0.41
2019-05-07T01:39:18.576Z,0.38
2019-05-07T01:41:45.322Z,0.31
2019-05-07T01:44:12.856Z,0.28
2019-05-07T01:46:42.080Z,0.26
2019-05-07T01:49:08.427Z,0.25
2019-05-07T01:51:35.162Z,0.25
2019-05-07T01:54:02.311Z,0.25
2019-05-07T01:56:29.228Z,0.20
2019-05-07T01:58:55.954Z,0.18
2019-05-07T02:01:22.860Z,0.17
2019-05-07T02:03:49.623Z,0.16
2019-05-07T02:06:16.372Z,0.15
2019-05-07T02:08:43.192Z,0.11
2019-05-07T02:11:09.904Z,0.09
2019-05-07T02:13:36.717Z,0.08
2019-05-07T02:16:04.304Z,0.05
2019-05-07T02:18:32.601Z,0.04
2019-05-07T02:20:59.960Z,0.02
2019-05-07T02:23:26.738Z,0.05
2019-05-07T02:25:53.493Z,0.06
2019-05-07T02:28:22.178Z,0.09
2019-05-07T02:30:48.862Z,0.05
2019-05-07T02:33:15.619Z,0.03
2019-05-07T02:35:43.855Z,0.00
2019-05-07T02:38:13.704Z,0.00
2019-05-07T02:40:39.627Z,-0.09
2019-05-07T02:43:06.570Z,-0.17
2019-05-07T02:45:33.507Z,-0.29
2019-05-07T02:48:03.246Z,-0.19
2019-05-07T02:50:28.816Z,-0.21
2019-05-07T02:52:55.618Z,-0.24
2019-05-07T02:55:23.175Z,-0.25
2019-05-07T02:57:50.214Z,-0.26
2019-05-07T03:00:19.539Z,-0.29
2019-05-07T03:02:45.620Z,-0.28
2019-05-07T03:05:13.644Z,-0.30
2019-05-07T03:07:42.803Z,-0.33
2019-05-07T03:10:09.336Z,-0.33
2019-05-07T03:12:36.446Z,-0.33
2019-05-07T03:15:04.773Z,-0.36
2019-05-07T03:17:33.296Z,-0.40
2019-05-07T03:20:03.147Z,-0.43
2019-05-07T03:22:28.993Z,-0.46
2019-05-07T03:24:55.750Z,-0.52
2019-05-07T03:27:23.459Z,-0.53
2019-05-07T03:29:53.320Z,-0.56
2019-05-07T03:32:19.116Z,-0.57
2019-05-07T03:34:47.172Z,-0.60
2019-05-07T03:37:14.276Z,-0.67
2019-05-07T03:39:43.334Z,-0.66
2019-05-07T03:42:12.752Z,-0.67
2019-05-07T03:44:38.207Z,-0.69
2019-05-07T03:47:06.438Z,-0.70
2019-05-07T03:49:34.192Z,-0.70
2019-05-07T03:52:04.199Z,-0.74
2019-05-07T03:54:29.892Z,-0.72
2019-05-07T03:56:56.609Z,-0.75
2019-05-07T03:59:23.512Z,-0.75
2019-05-07T04:01:53.585Z,-0.74
2019-05-07T04:04:18.863Z,-0.78
2019-05-07T04:06:45.689Z,-0.87
2019-05-07T04:09:13.373Z,-0.88
2019-05-07T04:11:43.060Z,-0.89
2019-05-07T04:14:08.932Z,-0.87
2019-05-07T04:16:35.660Z,-0.85
2019-05-07T04:19:03.850Z,-0.85
2019-05-07T04:21:34.149Z,-0.87
2019-05-07T04:23:59.322Z,-0.88
2019-05-07T04:26:26.081Z,-0.87
2019-05-07T04:28:53.955Z,-0.88
2019-05-07T04:31:22.933Z,-0.85
2019-05-07T04:33:49.565Z,-0.87
2019-05-07T04:36:16.425Z,-0.87
2019-05-07T04:38:43.957Z,-0.85
2019-05-07T04:41:13.608Z,-0.87
2019-05-07T04:43:43.183Z,-0.93
2019-05-07T04:46:08.333Z,-0.90
2019-05-07T04:48:35.074Z,-0.91
2019-05-07T04:51:03.540Z,-0.90
2019-05-07T04:53:32.850Z,-0.99
2019-05-07T04:55:58.957Z,-1.04
2019-05-07T04:58:26.746Z,-1.09
2019-05-07T05:00:53.950Z,-1.14
2019-05-07T05:03:23.417Z,-1.10
2019-05-07T05:05:49.340Z,-1.12
2019-05-07T05:08:16.089Z,-1.11
2019-05-07T05:10:43.419Z,-1.12
2019-05-07T05:13:12.622Z,-1.12
2019-05-07T05:15:38.911Z,-1.06
2019-05-07T05:18:05.622Z,-1.07
2019-05-07T05:20:33.633Z,-1.07
2019-05-07T05:23:20.200Z,-1.04
2019-05-07T05:25:47.084Z,-1.03
2019-05-07T05:28:13.838Z,-1.08
2019-05-07T05:30:42.724Z,-1.06
2019-05-07T05:33:09.529Z,-1.04
2019-05-07T05:35:36.382Z,-0.99
2019-05-07T05:38:03.838Z,-0.92
2019-05-07T05:40:31.971Z,-0.87
2019-05-07T05:42:58.888Z,-0.83
2019-05-07T05:45:25.673Z,-0.77
2019-05-07T05:48:04.434Z,-0.72
2019-05-07T05:50:21.874Z,-0.65
2019-05-07T05:52:48.617Z,-0.58
2019-05-07T05:55:15.437Z,-0.56
2019-05-07T05:57:42.478Z,-0.47
2019-05-07T06:00:12.448Z,-0.38
2019-05-07T06:02:38.726Z,-0.29
2019-05-07T06:05:05.540Z,-0.16
2019-05-07T06:07:32.254Z,-0.05
2019-05-07T06:09:59.077Z,0.07
2019-05-07T06:12:25.804Z,0.11
2019-05-07T06:14:53.886Z,0.20
2019-05-07T06:17:22.395Z,0.29
2019-05-07T06:19:49.291Z,0.39
2019-05-07T06:22:16.809Z,0.50
2019-05-07T06:24:43.734Z,0.61
2019-05-07T06:27:12.268Z,0.70
2019-05-07T06:29:39.037Z,0.81
2019-05-07T06:32:05.839Z,0.95
2019-05-07T06:34:34.267Z,1.06
2019-05-07T06:37:02.321Z,1.17
2019-05-07T06:39:29.349Z,1.27
2019-05-07T06:41:56.093Z,1.35
2019-05-07T06:44:22.819Z,1.47
2019-05-07T06:46:49.614Z,1.57
2019-05-07T06:49:16.364Z,1.68
2019-05-07T06:51:43.085Z,1.80
2019-05-07T06:54:09.916Z,1.91
2019-05-07T06:56:36.646Z,2.00
2019-05-07T06:59:03.476Z,2.09
2019-05-07T07:01:32.255Z,2.18
2019-05-07T07:03:58.885Z,2.28
2019-05-07T07:06:25.656Z,2.38
2019-05-07T07:08:52.662Z,2.45
2019-05-07T07:11:19.486Z,2.55
2019-05-07T07:13:46.209Z,2.61
2019-05-07T07:16:13.081Z,2.70
2019-05-07T07:18:49.523Z,2.78
2019-05-07T07:21:08.440Z,2.89
2019-05-07T07:23:35.258Z,2.99
2019-05-07T07:26:03.119Z,3.07
2019-05-07T07:28:32.406Z,3.12
2019-05-07T07:30:58.787Z,3.17
2019-05-07T07:33:25.516Z,3.24
2019-05-07T07:35:52.246Z,3.31
2019-05-07T07:38:19.021Z,3.35
2019-05-07T07:40:45.738Z,3.42
2019-05-07T07:43:12.994Z,3.53
2019-05-07T07:45:41.903Z,3.59
2019-05-07T07:48:08.330Z,3.62
2019-05-07T07:50:35.060Z,3.76
2019-05-07T07:53:02.515Z,3.87
2019-05-07T07:55:29.477Z,3.95
2019-05-07T07:57:56.203Z,4.02
2019-05-07T08:00:23.427Z,4.07
2019-05-07T08:02:50.246Z,4.10
2019-05-07T08:05:17.085Z,4.26
2019-05-07T08:07:43.877Z,4.36
2019-05-07T08:10:12.866Z,4.39
2019-05-07T08:12:41.972Z,4.48
2019-05-07T08:15:16.718Z,4.51
2019-05-07T08:17:37.132Z,4.58
2019-05-07T08:20:06.269Z,4.65
2019-05-07T08:22:33.184Z,4.67
2019-05-07T08:25:01.754Z,4.74
2019-05-07T08:27:28.459Z,4.82
2019-05-07T08:29:55.267Z,4.86
2019-05-07T08:32:22.397Z,4.89
2019-05-07T08:34:49.475Z,4.95
2019-05-07T08:37:16.287Z,5.05
2019-05-07T08:39:43.088Z,5.14
2019-05-07T08:42:12.103Z,5.27
2019-05-07T08:44:38.427Z,5.38
2019-05-07T08:47:05.142Z,5.45
2019-05-07T08:49:39.399Z,5.55
2019-05-07T08:52:03.099Z,5.61
2019-05-07T08:54:32.922Z,5.62
2019-05-07T08:57:01.978Z,5.78
2019-05-07T08:59:28.880Z,5.87
2019-05-07T09:01:55.625Z,5.92
2019-05-07T09:04:22.590Z,5.99
2019-05-07T09:06:49.611Z,5.92
2019-05-07T09:09:16.374Z,6.06
2019-05-07T09:11:43.283Z,6.24
2019-05-07T09:14:12.255Z,6.54
2019-05-07T09:16:38.603Z,6.70
2019-05-07T09:19:05.575Z,6.74
2019-05-07T09:21:33.171Z,6.78
2019-05-07T09:23:59.903Z,6.74
2019-05-07T09:26:26.661Z,6.82
2019-05-07T09:28:53.533Z,6.86
2019-05-07T09:31:22.326Z,6.94
2019-05-07T09:33:48.917Z,7.03
2019-05-07T09:36:15.720Z,7.08
2019-05-07T09:38:55.226Z,7.07
2019-05-07T09:41:12.035Z,7.20
2019-05-07T09:43:38.975Z,7.36
2019-05-07T09:46:05.714Z,7.45
2019-05-07T09:48:33.852Z,7.50
2019-05-07T09:51:02.305Z,7.63
2019-05-07T09:53:29.179Z,7.71
2019-05-07T09:55:55.935Z,7.79
2019-05-07T09:58:35.770Z,7.88
2019-05-07T10:00:51.665Z,8.00
2019-05-07T10:03:18.526Z,8.05
2019-05-07T10:05:45.328Z,8.03
2019-05-07T10:08:12.882Z,8.08
2019-05-07T10:10:41.682Z,8.13
2019-05-07T10:13:08.597Z,8.18
2019-05-07T10:15:35.344Z,8.17
2019-05-07T10:18:02.187Z,8.29
2019-05-07T10:20:30.104Z,8.41
2019-05-07T10:22:57.556Z,8.53
2019-05-07T10:25:24.390Z,8.57
2019-05-07T10:27:53.129Z,8.73
2019-05-07T10:30:21.903Z,8.83
2019-05-07T10:32:48.622Z,8.87
2019-05-07T10:35:16.385Z,8.88
2019-05-07T10:37:43.088Z,8.99
2019-05-07T10:40:12.273Z,9.17
2019-05-07T10:42:39.251Z,9.28
2019-05-07T10:45:06.824Z,9.43
2019-05-07T10:47:33.565Z,9.55
2019-05-07T10:50:02.778Z,9.63
2019-05-07T10:52:29.174Z,9.73
2019-05-07T10:55:03.846Z,9.85
2019-05-07T10:57:32.886Z,9.89
2019-05-07T11:00:03.023Z,10.08
2019-05-07T11:02:29.325Z,10.26
2019-05-07T11:04:56.121Z,10.40
2019-05-07T11:07:22.970Z,10.61
2019-05-07T11:09:49.724Z,10.84
2019-05-07T11:12:16.546Z,10.93
2019-05-07T11:14:43.875Z,11.11
2019-05-07T11:17:11.866Z,11.34
2019-05-07T11:19:38.867Z,11.51
2019-05-07T11:22:05.628Z,11.71
2019-05-07T11:24:32.361Z,11.73
2019-05-07T11:26:59.247Z,11.89
2019-05-07T11:29:25.997Z,12.10
2019-05-07T11:31:55.521Z,12.19
2019-05-07T11:34:22.407Z,12.34
2019-05-07T11:36:49.171Z,12.48
2019-05-07T11:39:15.902Z,12.49
2019-05-07T11:41:42.829Z,12.52
2019-05-07T11:44:09.491Z,12.61
2019-05-07T11:46:36.227Z,12.69
2019-05-07T11:49:03.203Z,12.76
2019-05-07T11:51:29.961Z,12.86
2019-05-07T11:53:56.671Z,13.01
2019-05-07T11:56:23.660Z,13.14
2019-05-07T11:58:52.833Z,13.37
2019-05-07T12:01:19.222Z,13.54
2019-05-07T12:03:46.160Z,13.69
2019-05-07T12:06:13.006Z,13.81
2019-05-07T12:08:48.137Z,13.80
2019-05-07T12:11:08.456Z,13.92
2019-05-07T12:13:35.227Z,14.01
2019-05-07T12:16:02.951Z,14.22
2019-05-07T12:18:31.980Z,14.46
2019-05-07T12:20:58.750Z,14.65
2019-05-07T12:23:25.517Z,14.76
2019-05-07T12:25:52.879Z,15.03
2019-05-07T12:28:19.917Z,15.23
2019-05-07T12:30:46.701Z,15.39
2019-05-07T12:33:13.590Z,15.53
2019-05-07T12:35:42.091Z,15.63
2019-05-07T12:38:08.910Z,15.74
2019-05-07T12:40:35.803Z,15.87
2019-05-07T12:43:02.668Z,15.88
2019-05-07T12:45:29.487Z,15.87
2019-05-07T12:47:56.359Z,15.96
2019-05-07T12:50:23.128Z,16.04
2019-05-07T12:52:49.927Z,16.17
2019-05-07T12:55:16.906Z,16.21
2019-05-07T12:57:43.667Z,16.20
2019-05-07T13:00:12.260Z,16.26
2019-05-07T13:02:42.085Z,16.29
2019-05-07T13:05:07.900Z,16.28
2019-05-07T13:07:34.676Z,16.27
2019-05-07T13:10:02.598Z,16.40
2019-05-07T13:12:29.481Z,16.34
2019-05-07T13:14:56.251Z,16.27
2019-05-07T13:17:23.114Z,16.26
2019-05-07T13:19:49.950Z,16.36
2019-05-07T13:22:22.564Z,16.45
2019-05-07T13:24:49.337Z,16.56
2019-05-07T13:27:16.146Z,16.61
2019-05-07T13:29:44.916Z,16.67
2019-05-07T13:32:13.803Z,16.79
2019-05-07T13:34:42.575Z,16.83
2019-05-07T13:37:12.729Z,16.65
2019-05-07T13:39:40.064Z,16.48
2019-05-07T13:42:07.076Z,16.32
2019-05-07T13:44:34.233Z,16.12
2019-05-07T13:47:02.063Z,16.03
2019-05-07T13:49:29.719Z,15.96
2019-05-07T13:52:03.529Z,15.70
2019-05-07T13:54:25.135Z,15.58
2019-05-07T13:56:52.542Z,15.60
2019-05-07T13:59:19.465Z,15.79
2019-05-07T14:01:46.290Z,15.98
2019-05-07T14:04:13.158Z,16.14
2019-05-07T14:06:42.978Z,16.22
2019-05-07T14:09:12.257Z,16.38
2019-05-07T14:11:39.154Z,16.47
2019-05-07T14:14:05.924Z,16.58
2019-05-07T14:16:32.759Z,16.75
2019-05-07T14:18:59.696Z,16.93
2019-05-07T14:21:26.512Z,17.17
2019-05-07T14:23:53.323Z,17.27
2019-05-07T14:26:23.740Z,17.44
2019-05-07T14:28:48.652Z,17.60
2019-05-07T14:31:16.336Z,17.70
2019-05-07T14:33:43.081Z,17.83
2019-05-07T14:36:11.621Z,17.97
2019-05-07T14:38:38.405Z,18.14
2019-05-07T14:41:05.161Z,18.30
2019-05-07T14:43:32.458Z,18.23
2019-05-07T14:45:59.356Z,18.26
2019-05-07T14:48:26.249Z,18.27
2019-05-07T14:50:53.104Z,18.20
2019-05-07T14:53:22.378Z,18.17
2019-05-07T14:55:49.180Z,18.23
2019-05-07T14:58:17.808Z,18.31
2019-05-07T15:00:44.660Z,18.52
2019-05-07T15:03:12.489Z,18.71
2019-05-07T15:05:39.476Z,18.95
2019-05-07T15:08:10.517Z,18.94
2019-05-07T15:10:35.019Z,18.96
2019-05-07T15:13:02.337Z,19.00
2019-05-07T15:15:29.489Z,19.07
2019-05-07T15:17:57.034Z,19.30
2019-05-07T15:20:24.411Z,19.10
2019-05-07T15:22:52.646Z,19.19
2019-05-07T15:25:22.529Z,18.97
2019-05-07T15:27:49.835Z,18.82
2019-05-07T15:30:18.011Z,18.32
2019-05-07T15:32:44.815Z,18.33
2019-05-07T15:35:12.602Z,18.10
2019-05-07T15:37:39.582Z,17.75
2019-05-07T15:40:07.748Z,17.56
2019-05-07T15:42:34.519Z,17.78
2019-05-07T15:45:02.325Z,17.75
2019-05-07T15:47:31.540Z,17.72
2019-05-07T15:49:57.926Z,17.64
2019-05-07T15:52:24.915Z,17.12
2019-05-07T15:54:52.298Z,16.89
2019-05-07T15:57:19.138Z,16.81
2019-05-07T15:59:45.988Z,16.75
2019-05-07T16:02:12.780Z,16.69
2019-05-07T16:04:39.539Z,16.74
2019-05-07T16:07:06.371Z,16.92
2019-05-07T16:09:33.382Z,16.91
2019-05-07T16:12:00.134Z,16.81
2019-05-07T16:14:27.210Z,16.55
2019-05-07T16:16:54.045Z,16.27
2019-05-07T16:19:20.929Z,15.96
2019-05-07T16:21:48.296Z,15.86
2019-05-07T16:24:15.051Z,15.74
2019-05-07T16:26:42.048Z,15.52
2019-05-07T16:29:08.958Z,15.27
2019-05-07T16:31:35.919Z,15.08
2019-05-07T16:34:05.710Z,14.79
2019-05-07T16:36:33.007Z,14.77
2019-05-07T16:38:59.919Z,14.70
2019-05-07T16:41:26.651Z,14.58
2019-05-07T16:43:53.487Z,14.41
2019-05-07T16:46:22.278Z,14.31
2019-05-07T16:48:48.895Z,14.15
2019-05-07T16:51:15.724Z,14.08
2019-05-07T16:53:42.485Z,13.74
2019-05-07T16:56:09.291Z,13.55
2019-05-07T16:58:36.117Z,13.52
2019-05-07T17:01:03.065Z,13.41
2019-05-07T17:03:31.760Z,13.29
2019-05-07T17:05:58.789Z,13.14
2019-05-07T17:08:25.529Z,13.16
2019-05-07T17:10:52.456Z,13.11
2019-05-07T17:13:19.287Z,13.05
2019-05-07T17:15:46.143Z,13.01
2019-05-07T17:18:12.918Z,12.98
2019-05-07T17:20:39.771Z,12.94
2019-05-07T17:23:06.563Z,12.84
2019-05-07T17:25:33.491Z,12.77
2019-05-07T17:28:00.323Z,12.70
2019-05-07T17:30:27.131Z,12.53
2019-05-07T17:32:53.902Z,12.48
2019-05-07T17:35:22.443Z,12.35
2019-05-07T17:37:49.310Z,12.23
2019-05-07T17:40:18.026Z,12.16
2019-05-07T17:42:46.701Z,12.11
2019-05-07T17:45:13.685Z,12.01
2019-05-07T17:47:42.367Z,11.95
2019-05-07T17:50:09.491Z,11.87
2019-05-07T17:52:36.274Z,11.82
2019-05-07T17:55:05.640Z,11.72
2019-05-07T17:57:33.459Z,11.69
2019-05-07T18:00:02.211Z,11.64
2019-05-07T18:02:32.194Z,11.53
2019-05-07T18:04:59.236Z,11.43
2019-05-07T18:07:26.013Z,11.39
2019-05-07T18:09:52.751Z,11.34
2019-05-07T18:12:22.486Z,11.27
2019-05-07T18:14:49.509Z,11.16
2019-05-07T18:17:16.264Z,11.11
2019-05-07T18:19:44.445Z,11.05
2019-05-07T18:22:12.779Z,10.93
2019-05-07T18:24:41.885Z,10.82
2019-05-07T18:27:08.641Z,10.79
2019-05-07T18:29:35.621Z,10.68
2019-05-07T18:32:02.534Z,10.61
2019-05-07T18:34:29.350Z,10.54
2019-05-07T18:36:56.102Z,10.50
2019-05-07T18:39:22.899Z,10.45
2019-05-07T18:41:49.781Z,10.37
2019-05-07T18:44:16.607Z,10.31
2019-05-07T18:46:43.362Z,10.27
2019-05-07T18:49:10.198Z,10.22
2019-05-07T18:51:36.981Z,10.18
2019-05-07T18:54:03.758Z,10.12
2019-05-07T18:56:30.664Z,10.04
2019-05-07T18:58:57.435Z,9.97
2019-05-07T19:01:24.198Z,9.90
2019-05-07T19:03:52.592Z,9.84
2019-05-07T19:06:19.371Z,9.80
2019-05-07T19:08:46.928Z,9.72
2019-05-07T19:11:13.855Z,9.67
2019-05-07T19:13:41.947Z,9.62
2019-05-07T19:16:09.045Z,9.54
2019-05-07T19:18:35.865Z,9.50
2019-05-07T19:21:02.730Z,9.43
2019-05-07T19:23:29.479Z,9.40
2019-05-07T19:25:56.778Z,9.31
2019-05-07T19:28:23.532Z,9.29
2019-05-07T19:30:52.554Z,9.23
2019-05-07T19:33:18.936Z,9.17
2019-05-07T19:35:45.734Z,9.11
2019-05-07T19:38:12.503Z,9.09
2019-05-07T19:40:39.369Z,9.06
2019-05-07T19:43:06.112Z,8.99
2019-05-07T19:45:32.891Z,8.98
2019-05-07T19:47:59.704Z,8.98
2019-05-07T19:50:26.452Z,8.97
2019-05-07T19:52:53.223Z,8.92
2019-05-07T19:55:21.846Z,8.85
2019-05-07T19:57:48.602Z,8.82
2019-05-07T20:00:16.969Z,8.78
2019-05-07T20:02:43.828Z,8.74
2019-05-07T20:05:12.131Z,8.72
2019-05-07T20:07:38.979Z,8.70
2019-05-07T20:10:06.071Z,8.68
2019-05-07T20:12:32.867Z,8.63
2019-05-07T20:14:59.618Z,8.61
2019-05-07T20:17:26.547Z,8.58
2019-05-07T20:19:53.323Z,8.55
2019-05-07T20:22:22.050Z,8.54
2019-05-07T20:24:48.718Z,8.54
2019-05-07T20:27:15.505Z,8.49
2019-05-07T20:29:42.780Z,8.47
2019-05-07T20:32:09.842Z,8.43
2019-05-07T20:34:36.616Z,8.41
2019-05-07T20:37:03.384Z,8.44
2019-05-07T20:39:32.128Z,8.41
2019-05-07T20:41:58.767Z,8.40
2019-05-07T20:44:25.544Z,8.38
2019-05-07T20:46:53.552Z,8.39
2019-05-07T20:49:22.533Z,8.41
2019-05-07T20:51:49.815Z,8.41
2019-05-07T20:54:17.077Z,8.38
2019-05-07T20:56:46.624Z,8.36
2019-05-07T20:59:13.227Z,8.31
2019-05-07T21:01:42.010Z,8.34
2019-05-07T21:04:08.779Z,8.34
2019-05-07T21:06:35.550Z,8.35
2019-05-07T21:09:04.953Z,8.29
2019-05-07T21:11:32.323Z,8.31
2019-05-07T21:13:59.339Z,8.30
2019-05-07T21:16:26.200Z,8.20
2019-05-07T21:18:53.006Z,8.20
2019-05-07T21:21:21.777Z,8.21
2019-05-07T21:23:48.421Z,8.17
2019-05-07T21:26:15.247Z,8.19
2019-05-07T21:28:43.134Z,8.19
2019-05-07T21:31:11.944Z,8.13
2019-05-07T21:33:38.855Z,8.07
2019-05-07T21:36:05.616Z,8.00
2019-05-07T21:38:33.042Z,7.99
2019-05-07T21:40:59.892Z,7.89
2019-05-07T21:43:26.636Z,7.80
2019-05-07T21:45:53.565Z,7.66
2019-05-07T21:48:22.262Z,7.53
2019-05-07T21:50:49.108Z,7.25
2019-05-07T21:53:16.131Z,7.07
2019-05-07T21:55:44.262Z,7.01
2019-05-07T21:58:11.819Z,6.94
2019-05-07T22:00:39.145Z,6.88
2019-05-07T22:03:06.111Z,6.84
2019-05-07T22:05:32.849Z,6.84
2019-05-07T22:08:01.477Z,6.78
2019-05-07T22:10:28.227Z,6.69
2019-05-07T22:12:54.988Z,6.57
2019-05-07T22:15:22.460Z,6.51
2019-05-07T22:17:49.252Z,6.46
2019-05-07T22:20:16.027Z,6.39
2019-05-07T22:22:42.941Z,6.35
2019-05-07T22:25:09.902Z,6.33
2019-05-07T22:27:36.902Z,6.32
2019-05-07T22:30:07.249Z,6.26
2019-05-07T22:32:34.082Z,6.25
2019-05-07T22:35:02.826Z,6.17
2019-05-07T22:37:29.442Z,6.11
2019-05-07T22:39:56.196Z,6.07
2019-05-07T22:42:22.941Z,6.03
2019-05-07T22:44:49.850Z,6.02
2019-05-07T22:47:16.638Z,6.05
2019-05-07T22:49:44.928Z,5.96
2019-05-07T22:52:12.764Z,5.94
2019-05-07T22:54:39.707Z,5.93
2019-05-07T22:57:06.481Z,5.89
2019-05-07T22:59:33.399Z,5.88
2019-05-07T23:02:02.881Z,5.86
2019-05-07T23:04:28.744Z,5.81
2019-05-07T23:06:55.589Z,5.75
2019-05-07T23:09:22.569Z,5.73
2019-05-07T23:11:49.428Z,5.67
2019-05-07T23:14:16.254Z,5.62
2019-05-07T23:16:43.132Z,5.59
2019-05-07T23:19:09.874Z,5.57
2019-05-07T23:21:36.669Z,5.52
2019-05-07T23:24:03.454Z,5.45
2019-05-07T23:26:33.541Z,5.47
2019-05-07T23:28:58.999Z,5.43
2019-05-07T23:31:25.788Z,5.40
2019-05-07T23:33:52.549Z,5.34
2019-05-07T23:36:19.405Z,5.29
2019-05-07T23:38:46.137Z,5.32
2019-05-07T23:41:12.919Z,5.29
2019-05-07T23:43:39.832Z,5.28
2019-05-07T23:46:06.613Z,5.24
2019-05-07T23:48:33.389Z,5.20
2019-05-07T23:51:02.073Z,5.19
2019-05-07T23:53:28.841Z,5.19
2019-05-07T23:55:55.620Z,5.12
2019-05-07T23:58:23.078Z,5.12
